sensor_id;sensor_type;location;lat;lon;timestamp;P1;durP1;ratioP1;P2;durP2;ratioP2
11004;SDS011;5555;59.622;16.556;2023-05-10T00:01:22;4.63;;;3.70;;
11004;SDS011;5555;59.622;16.556;2023-05-10T00:03:48;6.40;;;3.20;;
11004;SDS011;5555;59.622;16.556;2023-05-10T00:06:14;5.07;;;3.70;;
11004;SDS011;5555;59.622;16.556;2023-05-10T00:08:40;4.87;;;3.83;;
11004;SDS011;5555;59.622;16.556;2023-05-10T00:11:05;6.00;;;3.40;;
11004;SDS011;5555;59.622;16.556;2023-05-10T00:13:31;5.00;;;3.53;;
11004;SDS011;5555;59.622;16.556;2023-05-10T00:15:57;5.07;;;3.40;;
11004;SDS011;5555;59.622;16.556;2023-05-10T00:18:22;3.80;;;3.50;;
11004;SDS011;5555;59.622;16.556;2023-05-10T00:20:48;4.70;;;3.60;;
11004;SDS011;5555;59.622;16.556;2023-05-10T00:23:14;7.03;;;4.03;;
11004;SDS011;5555;59.622;16.556;2023-05-10T00:25:40;5.03;;;3.33;;
11004;SDS011;5555;59.622;16.556;2023-05-10T00:28:05;4.63;;;3.73;;
11004;SDS011;5555;59.622;16.556;2023-05-10T00:30:31;3.97;;;3.27;;
11004;SDS011;5555;59.622;16.556;2023-05-10T00:32:56;4.40;;;3.70;;
11004;SDS011;5555;59.622;16.556;2023-05-10T00:35:22;4.10;;;3.70;;
11004;SDS011;5555;59.622;16.556;2023-05-10T00:37:48;4.53;;;3.80;;
11004;SDS011;5555;59.622;16.556;2023-05-10T00:40:14;4.37;;;4.00;;
11004;SDS011;5555;59.622;16.556;2023-05-10T00:42:39;4.23;;;3.90;;
11004;SDS011;5555;59.622;16.556;2023-05-10T00:45:05;4.30;;;3.90;;
11004;SDS011;5555;59.622;16.556;2023-05-10T00:47:31;6.93;;;4.17;;
11004;SDS011;5555;59.622;16.556;2023-05-10T00:49:58;4.37;;;3.97;;
11004;SDS011;5555;59.622;16.556;2023-05-10T00:52:25;5.10;;;4.23;;
11004;SDS011;5555;59.622;16.556;2023-05-10T00:54:52;4.23;;;3.83;;
11004;SDS011;5555;59.622;16.556;2023-05-10T00:57:18;4.13;;;3.77;;
11004;SDS011;5555;59.622;16.556;2023-05-10T00:59:44;5.07;;;3.90;;
11004;SDS011;5555;59.622;16.556;2023-05-10T01:02:10;4.50;;;4.10;;
11004;SDS011;5555;59.622;16.556;2023-05-10T01:04:36;4.10;;;3.60;;
11004;SDS011;5555;59.622;16.556;2023-05-10T01:07:03;3.87;;;3.57;;
11004;SDS011;5555;59.622;16.556;2023-05-10T01:09:29;5.07;;;4.23;;
11004;SDS011;5555;59.622;16.556;2023-05-10T01:11:54;4.00;;;3.60;;
11004;SDS011;5555;59.622;16.556;2023-05-10T01:14:21;5.63;;;4.00;;
11004;SDS011;5555;59.622;16.556;2023-05-10T01:16:47;4.77;;;4.23;;
11004;SDS011;5555;59.622;16.556;2023-05-10T01:19:18;4.50;;;4.00;;
11004;SDS011;5555;59.622;16.556;2023-05-10T01:27:20;6.97;;;4.10;;
11004;SDS011;5555;59.622;16.556;2023-05-10T01:36:13;4.73;;;4.13;;
11004;SDS011;5555;59.622;16.556;2023-05-10T01:39:02;5.13;;;4.70;;
11004;SDS011;5555;59.622;16.556;2023-05-10T01:41:55;4.27;;;3.83;;
11004;SDS011;5555;59.622;16.556;2023-05-10T01:47:01;3.80;;;3.50;;
11004;SDS011;5555;59.622;16.556;2023-05-10T01:49:34;3.40;;;3.10;;
11004;SDS011;5555;59.622;16.556;2023-05-10T01:52:12;5.17;;;4.30;;
11004;SDS011;5555;59.622;16.556;2023-05-10T01:54:44;4.93;;;4.00;;
11004;SDS011;5555;59.622;16.556;2023-05-10T01:57:19;7.90;;;4.33;;
11004;SDS011;5555;59.622;16.556;2023-05-10T01:59:46;4.50;;;4.10;;
11004;SDS011;5555;59.622;16.556;2023-05-10T02:02:15;5.17;;;3.83;;
11004;SDS011;5555;59.622;16.556;2023-05-10T02:04:44;4.57;;;4.17;;
11004;SDS011;5555;59.622;16.556;2023-05-10T02:07:11;4.77;;;4.37;;
11004;SDS011;5555;59.622;16.556;2023-05-10T02:09:39;5.73;;;4.30;;
11004;SDS011;5555;59.622;16.556;2023-05-10T02:12:06;4.53;;;4.13;;
11004;SDS011;5555;59.622;16.556;2023-05-10T02:14:34;4.20;;;3.80;;
11004;SDS011;5555;59.622;16.556;2023-05-10T02:17:02;7.27;;;5.10;;
11004;SDS011;5555;59.622;16.556;2023-05-10T02:19:31;4.50;;;4.10;;
11004;SDS011;5555;59.622;16.556;2023-05-10T02:21:58;6.20;;;4.20;;
11004;SDS011;5555;59.622;16.556;2023-05-10T02:24:25;4.63;;;4.23;;
11004;SDS011;5555;59.622;16.556;2023-05-10T02:26:53;5.23;;;4.43;;
11004;SDS011;5555;59.622;16.556;2023-05-10T02:29:20;5.03;;;4.53;;
11004;SDS011;5555;59.622;16.556;2023-05-10T02:31:52;4.77;;;4.37;;
11004;SDS011;5555;59.622;16.556;2023-05-10T02:34:19;6.20;;;4.70;;
11004;SDS011;5555;59.622;16.556;2023-05-10T02:36:47;7.57;;;4.40;;
11004;SDS011;5555;59.622;16.556;2023-05-10T02:39:13;4.90;;;4.30;;
11004;SDS011;5555;59.622;16.556;2023-05-10T02:41:40;5.83;;;4.60;;
11004;SDS011;5555;59.622;16.556;2023-05-10T02:44:09;5.83;;;5.07;;
11004;SDS011;5555;59.622;16.556;2023-05-10T02:46:35;5.23;;;4.70;;
11004;SDS011;5555;59.622;16.556;2023-05-10T02:49:02;6.27;;;4.27;;
11004;SDS011;5555;59.622;16.556;2023-05-10T02:51:30;4.87;;;4.43;;
11004;SDS011;5555;59.622;16.556;2023-05-10T02:54:10;5.10;;;4.43;;
11004;SDS011;5555;59.622;16.556;2023-05-10T02:56:41;5.43;;;4.80;;
11004;SDS011;5555;59.622;16.556;2023-05-10T02:59:10;5.03;;;4.53;;
11004;SDS011;5555;59.622;16.556;2023-05-10T03:01:36;5.13;;;4.63;;
11004;SDS011;5555;59.622;16.556;2023-05-10T03:04:01;4.47;;;4.07;;
11004;SDS011;5555;59.622;16.556;2023-05-10T03:06:27;5.10;;;4.60;;
11004;SDS011;5555;59.622;16.556;2023-05-10T03:08:53;5.93;;;4.53;;
11004;SDS011;5555;59.622;16.556;2023-05-10T03:11:26;7.23;;;5.03;;
11004;SDS011;5555;59.622;16.556;2023-05-10T03:14:07;6.50;;;4.63;;
11004;SDS011;5555;59.622;16.556;2023-05-10T03:17:15;7.60;;;4.60;;
11004;SDS011;5555;59.622;16.556;2023-05-10T03:19:53;8.07;;;4.60;;
11004;SDS011;5555;59.622;16.556;2023-05-10T03:22:23;5.70;;;4.73;;
11004;SDS011;5555;59.622;16.556;2023-05-10T03:24:57;6.67;;;4.93;;
11004;SDS011;5555;59.622;16.556;2023-05-10T03:27:26;5.33;;;4.30;;
11004;SDS011;5555;59.622;16.556;2023-05-10T03:29:53;4.50;;;4.10;;
11004;SDS011;5555;59.622;16.556;2023-05-10T03:32:20;6.33;;;4.57;;
11004;SDS011;5555;59.622;16.556;2023-05-10T03:34:47;5.17;;;4.67;;
11004;SDS011;5555;59.622;16.556;2023-05-10T03:37:12;7.80;;;5.10;;
11004;SDS011;5555;59.622;16.556;2023-05-10T03:39:38;4.93;;;4.47;;
11004;SDS011;5555;59.622;16.556;2023-05-10T03:42:04;5.10;;;4.60;;
11004;SDS011;5555;59.622;16.556;2023-05-10T03:44:30;4.80;;;4.40;;
11004;SDS011;5555;59.622;16.556;2023-05-10T03:46:56;6.77;;;4.33;;
11004;SDS011;5555;59.622;16.556;2023-05-10T03:49:22;5.13;;;4.43;;
11004;SDS011;5555;59.622;16.556;2023-05-10T03:51:47;8.40;;;4.50;;
11004;SDS011;5555;59.622;16.556;2023-05-10T03:54:13;4.87;;;4.37;;
11004;SDS011;5555;59.622;16.556;2023-05-10T03:56:39;7.07;;;4.60;;
11004;SDS011;5555;59.622;16.556;2023-05-10T03:59:04;5.57;;;4.70;;
11004;SDS011;5555;59.622;16.556;2023-05-10T04:01:32;8.93;;;4.73;;
11004;SDS011;5555;59.622;16.556;2023-05-10T04:03:58;7.00;;;4.63;;
11004;SDS011;5555;59.622;16.556;2023-05-10T04:06:24;6.30;;;4.97;;
11004;SDS011;5555;59.622;16.556;2023-05-10T04:08:50;7.67;;;5.00;;
11004;SDS011;5555;59.622;16.556;2023-05-10T04:11:15;8.57;;;4.97;;
11004;SDS011;5555;59.622;16.556;2023-05-10T04:13:41;6.93;;;4.83;;
11004;SDS011;5555;59.622;16.556;2023-05-10T04:16:07;5.27;;;4.77;;
11004;SDS011;5555;59.622;16.556;2023-05-10T04:18:33;7.20;;;4.77;;
11004;SDS011;5555;59.622;16.556;2023-05-10T04:20:59;7.30;;;4.70;;
11004;SDS011;5555;59.622;16.556;2023-05-10T04:23:25;8.80;;;4.70;;
11004;SDS011;5555;59.622;16.556;2023-05-10T04:25:52;6.23;;;5.13;;
11004;SDS011;5555;59.622;16.556;2023-05-10T04:28:17;8.30;;;5.03;;
11004;SDS011;5555;59.622;16.556;2023-05-10T04:30:43;8.03;;;5.20;;
11004;SDS011;5555;59.622;16.556;2023-05-10T04:33:09;7.63;;;4.73;;
11004;SDS011;5555;59.622;16.556;2023-05-10T04:35:35;7.17;;;5.07;;
11004;SDS011;5555;59.622;16.556;2023-05-10T04:38:00;8.87;;;5.17;;
11004;SDS011;5555;59.622;16.556;2023-05-10T04:40:26;4.97;;;4.30;;
11004;SDS011;5555;59.622;16.556;2023-05-10T04:42:52;9.93;;;4.80;;
11004;SDS011;5555;59.622;16.556;2023-05-10T04:45:17;12.40;;;5.13;;
11004;SDS011;5555;59.622;16.556;2023-05-10T04:47:43;12.23;;;5.60;;
11004;SDS011;5555;59.622;16.556;2023-05-10T04:50:08;8.43;;;5.33;;
11004;SDS011;5555;59.622;16.556;2023-05-10T04:52:34;7.10;;;4.90;;
11004;SDS011;5555;59.622;16.556;2023-05-10T04:55:01;6.40;;;4.47;;
11004;SDS011;5555;59.622;16.556;2023-05-10T04:57:26;11.20;;;4.67;;
11004;SDS011;5555;59.622;16.556;2023-05-10T04:59:52;9.67;;;4.73;;
11004;SDS011;5555;59.622;16.556;2023-05-10T05:02:18;5.87;;;4.77;;
11004;SDS011;5555;59.622;16.556;2023-05-10T05:04:43;6.07;;;4.63;;
11004;SDS011;5555;59.622;16.556;2023-05-10T05:07:09;8.00;;;4.93;;
11004;SDS011;5555;59.622;16.556;2023-05-10T05:09:35;7.30;;;4.67;;
11004;SDS011;5555;59.622;16.556;2023-05-10T05:12:00;5.97;;;5.13;;
11004;SDS011;5555;59.622;16.556;2023-05-10T05:14:26;5.13;;;4.73;;
11004;SDS011;5555;59.622;16.556;2023-05-10T05:16:52;6.10;;;5.50;;
11004;SDS011;5555;59.622;16.556;2023-05-10T05:19:17;6.97;;;4.97;;
11004;SDS011;5555;59.622;16.556;2023-05-10T05:21:43;8.43;;;5.30;;
11004;SDS011;5555;59.622;16.556;2023-05-10T05:24:09;7.20;;;4.50;;
11004;SDS011;5555;59.622;16.556;2023-05-10T05:26:36;6.17;;;5.40;;
11004;SDS011;5555;59.622;16.556;2023-05-10T05:29:01;8.97;;;4.70;;
11004;SDS011;5555;59.622;16.556;2023-05-10T05:31:28;6.50;;;5.03;;
11004;SDS011;5555;59.622;16.556;2023-05-10T05:33:53;9.30;;;4.97;;
11004;SDS011;5555;59.622;16.556;2023-05-10T05:36:19;7.40;;;5.17;;
11004;SDS011;5555;59.622;16.556;2023-05-10T05:38:45;6.90;;;5.07;;
11004;SDS011;5555;59.622;16.556;2023-05-10T05:41:10;8.10;;;5.27;;
11004;SDS011;5555;59.622;16.556;2023-05-10T05:43:36;5.93;;;5.10;;
11004;SDS011;5555;59.622;16.556;2023-05-10T05:46:01;7.87;;;4.83;;
11004;SDS011;5555;59.622;16.556;2023-05-10T05:48:29;6.43;;;5.13;;
11004;SDS011;5555;59.622;16.556;2023-05-10T05:50:55;7.13;;;4.97;;
11004;SDS011;5555;59.622;16.556;2023-05-10T05:53:21;7.27;;;5.07;;
11004;SDS011;5555;59.622;16.556;2023-05-10T05:55:53;6.10;;;4.90;;
11004;SDS011;5555;59.622;16.556;2023-05-10T05:58:20;8.93;;;4.83;;
11004;SDS011;5555;59.622;16.556;2023-05-10T06:00:46;5.87;;;4.63;;
11004;SDS011;5555;59.622;16.556;2023-05-10T06:03:12;6.70;;;4.53;;
11004;SDS011;5555;59.622;16.556;2023-05-10T06:05:37;9.10;;;5.20;;
11004;SDS011;5555;59.622;16.556;2023-05-10T06:08:03;6.20;;;5.17;;
11004;SDS011;5555;59.622;16.556;2023-05-10T06:10:29;7.77;;;5.17;;
11004;SDS011;5555;59.622;16.556;2023-05-10T06:12:55;9.03;;;5.60;;
11004;SDS011;5555;59.622;16.556;2023-05-10T06:15:21;7.37;;;5.07;;
11004;SDS011;5555;59.622;16.556;2023-05-10T06:17:46;6.80;;;5.27;;
11004;SDS011;5555;59.622;16.556;2023-05-10T06:20:14;7.27;;;5.20;;
11004;SDS011;5555;59.622;16.556;2023-05-10T06:22:40;8.27;;;5.30;;
11004;SDS011;5555;59.622;16.556;2023-05-10T06:25:06;6.10;;;4.07;;
11004;SDS011;5555;59.622;16.556;2023-05-10T06:27:32;5.63;;;4.80;;
11004;SDS011;5555;59.622;16.556;2023-05-10T06:29:58;7.07;;;4.93;;
11004;SDS011;5555;59.622;16.556;2023-05-10T06:32:23;6.93;;;4.53;;
11004;SDS011;5555;59.622;16.556;2023-05-10T06:34:49;9.17;;;5.03;;
11004;SDS011;5555;59.622;16.556;2023-05-10T06:37:15;7.30;;;4.70;;
11004;SDS011;5555;59.622;16.556;2023-05-10T06:39:40;5.53;;;4.70;;
11004;SDS011;5555;59.622;16.556;2023-05-10T06:42:06;6.17;;;4.57;;
11004;SDS011;5555;59.622;16.556;2023-05-10T06:44:32;7.50;;;4.63;;
11004;SDS011;5555;59.622;16.556;2023-05-10T06:46:58;7.03;;;4.80;;
11004;SDS011;5555;59.622;16.556;2023-05-10T06:49:23;7.73;;;5.07;;
11004;SDS011;5555;59.622;16.556;2023-05-10T06:51:49;5.43;;;4.30;;
11004;SDS011;5555;59.622;16.556;2023-05-10T06:54:14;5.23;;;4.40;;
11004;SDS011;5555;59.622;16.556;2023-05-10T06:56:40;6.97;;;4.80;;
11004;SDS011;5555;59.622;16.556;2023-05-10T06:59:06;9.27;;;4.70;;
11004;SDS011;5555;59.622;16.556;2023-05-10T07:01:32;10.27;;;5.73;;
11004;SDS011;5555;59.622;16.556;2023-05-10T07:03:57;10.20;;;4.63;;
11004;SDS011;5555;59.622;16.556;2023-05-10T07:06:23;8.10;;;4.77;;
11004;SDS011;5555;59.622;16.556;2023-05-10T07:08:48;6.47;;;4.23;;
11004;SDS011;5555;59.622;16.556;2023-05-10T07:11:14;7.43;;;4.27;;
11004;SDS011;5555;59.622;16.556;2023-05-10T07:13:40;6.67;;;4.30;;
11004;SDS011;5555;59.622;16.556;2023-05-10T07:16:09;6.43;;;4.80;;
11004;SDS011;5555;59.622;16.556;2023-05-10T07:18:35;7.70;;;4.00;;
11004;SDS011;5555;59.622;16.556;2023-05-10T07:21:01;4.90;;;3.73;;
11004;SDS011;5555;59.622;16.556;2023-05-10T07:23:27;5.63;;;4.17;;
11004;SDS011;5555;59.622;16.556;2023-05-10T07:25:52;5.83;;;4.27;;
11004;SDS011;5555;59.622;16.556;2023-05-10T07:28:18;4.70;;;3.90;;
11004;SDS011;5555;59.622;16.556;2023-05-10T07:30:44;5.77;;;3.60;;
11004;SDS011;5555;59.622;16.556;2023-05-10T07:33:10;7.70;;;4.13;;
11004;SDS011;5555;59.622;16.556;2023-05-10T07:35:37;8.43;;;3.87;;
11004;SDS011;5555;59.622;16.556;2023-05-10T07:38:03;8.93;;;4.00;;
11004;SDS011;5555;59.622;16.556;2023-05-10T07:40:28;6.63;;;4.03;;
11004;SDS011;5555;59.622;16.556;2023-05-10T07:42:54;7.60;;;4.27;;
11004;SDS011;5555;59.622;16.556;2023-05-10T07:45:20;8.13;;;3.90;;
11004;SDS011;5555;59.622;16.556;2023-05-10T07:47:46;5.97;;;3.73;;
11004;SDS011;5555;59.622;16.556;2023-05-10T07:50:12;4.27;;;3.47;;
11004;SDS011;5555;59.622;16.556;2023-05-10T07:52:37;5.73;;;3.60;;
11004;SDS011;5555;59.622;16.556;2023-05-10T07:55:03;8.33;;;3.93;;
11004;SDS011;5555;59.622;16.556;2023-05-10T07:57:29;7.77;;;4.07;;
11004;SDS011;5555;59.622;16.556;2023-05-10T07:59:55;10.67;;;3.67;;
11004;SDS011;5555;59.622;16.556;2023-05-10T08:02:21;6.27;;;3.07;;
11004;SDS011;5555;59.622;16.556;2023-05-10T08:04:46;4.80;;;3.73;;
11004;SDS011;5555;59.622;16.556;2023-05-10T08:07:12;5.87;;;3.60;;
11004;SDS011;5555;59.622;16.556;2023-05-10T08:09:38;7.50;;;3.67;;
11004;SDS011;5555;59.622;16.556;2023-05-10T08:12:03;8.37;;;3.50;;
11004;SDS011;5555;59.622;16.556;2023-05-10T08:14:29;5.33;;;3.47;;
11004;SDS011;5555;59.622;16.556;2023-05-10T08:16:55;6.23;;;3.67;;
11004;SDS011;5555;59.622;16.556;2023-05-10T08:19:21;7.93;;;3.23;;
11004;SDS011;5555;59.622;16.556;2023-05-10T08:21:47;6.07;;;3.13;;
11004;SDS011;5555;59.622;16.556;2023-05-10T08:24:13;7.87;;;3.67;;
11004;SDS011;5555;59.622;16.556;2023-05-10T08:26:39;7.73;;;3.60;;
11004;SDS011;5555;59.622;16.556;2023-05-10T08:29:04;5.97;;;3.50;;
11004;SDS011;5555;59.622;16.556;2023-05-10T08:31:30;6.63;;;3.50;;
11004;SDS011;5555;59.622;16.556;2023-05-10T08:33:56;7.57;;;3.60;;
11004;SDS011;5555;59.622;16.556;2023-05-10T08:36:21;6.93;;;3.60;;
11004;SDS011;5555;59.622;16.556;2023-05-10T08:38:52;5.83;;;3.50;;
11004;SDS011;5555;59.622;16.556;2023-05-10T08:41:22;6.17;;;3.20;;
11004;SDS011;5555;59.622;16.556;2023-05-10T08:43:51;4.50;;;3.27;;
11004;SDS011;5555;59.622;16.556;2023-05-10T08:46:19;4.57;;;3.07;;
11004;SDS011;5555;59.622;16.556;2023-05-10T08:48:48;6.10;;;3.20;;
11004;SDS011;5555;59.622;16.556;2023-05-10T08:51:19;7.40;;;3.20;;
11004;SDS011;5555;59.622;16.556;2023-05-10T08:53:47;4.67;;;3.27;;
11004;SDS011;5555;59.622;16.556;2023-05-10T08:56:13;6.90;;;3.40;;
11004;SDS011;5555;59.622;16.556;2023-05-10T08:58:40;4.57;;;3.20;;
11004;SDS011;5555;59.622;16.556;2023-05-10T09:01:06;7.73;;;3.57;;
11004;SDS011;5555;59.622;16.556;2023-05-10T09:03:33;7.67;;;3.53;;
11004;SDS011;5555;59.622;16.556;2023-05-10T09:06:00;6.20;;;2.93;;
11004;SDS011;5555;59.622;16.556;2023-05-10T09:08:26;3.53;;;2.87;;
11004;SDS011;5555;59.622;16.556;2023-05-10T09:10:52;6.33;;;3.03;;
11004;SDS011;5555;59.622;16.556;2023-05-10T09:13:19;4.33;;;3.00;;
11004;SDS011;5555;59.622;16.556;2023-05-10T09:15:47;6.90;;;3.23;;
11004;SDS011;5555;59.622;16.556;2023-05-10T09:18:13;3.90;;;2.70;;
11004;SDS011;5555;59.622;16.556;2023-05-10T09:20:39;9.53;;;2.97;;
11004;SDS011;5555;59.622;16.556;2023-05-10T09:23:05;5.33;;;2.97;;
11004;SDS011;5555;59.622;16.556;2023-05-10T09:25:31;4.00;;;2.80;;
11004;SDS011;5555;59.622;16.556;2023-05-10T09:28:00;5.97;;;2.67;;
11004;SDS011;5555;59.622;16.556;2023-05-10T09:30:29;5.20;;;2.80;;
11004;SDS011;5555;59.622;16.556;2023-05-10T09:32:56;7.20;;;2.90;;
11004;SDS011;5555;59.622;16.556;2023-05-10T09:35:24;9.97;;;3.30;;
11004;SDS011;5555;59.622;16.556;2023-05-10T09:37:52;5.43;;;2.93;;
11004;SDS011;5555;59.622;16.556;2023-05-10T09:40:21;8.47;;;3.23;;
11004;SDS011;5555;59.622;16.556;2023-05-10T09:42:52;10.40;;;3.03;;
11004;SDS011;5555;59.622;16.556;2023-05-10T09:45:18;6.83;;;3.00;;
11004;SDS011;5555;59.622;16.556;2023-05-10T09:47:44;5.40;;;3.03;;
11004;SDS011;5555;59.622;16.556;2023-05-10T09:50:10;6.90;;;2.80;;
11004;SDS011;5555;59.622;16.556;2023-05-10T09:55:22;8.07;;;3.17;;
11004;SDS011;5555;59.622;16.556;2023-05-10T09:57:49;5.80;;;3.10;;
11004;SDS011;5555;59.622;16.556;2023-05-10T10:00:24;9.50;;;3.20;;
11004;SDS011;5555;59.622;16.556;2023-05-10T10:02:59;8.77;;;2.80;;
11004;SDS011;5555;59.622;16.556;2023-05-10T10:05:28;5.67;;;3.10;;
11004;SDS011;5555;59.622;16.556;2023-05-10T10:07:55;6.00;;;2.77;;
11004;SDS011;5555;59.622;16.556;2023-05-10T10:10:23;6.80;;;2.83;;
11004;SDS011;5555;59.622;16.556;2023-05-10T10:12:50;7.87;;;2.73;;
11004;SDS011;5555;59.622;16.556;2023-05-10T10:15:16;6.03;;;2.90;;
11004;SDS011;5555;59.622;16.556;2023-05-10T10:17:43;5.27;;;2.93;;
11004;SDS011;5555;59.622;16.556;2023-05-10T10:20:09;6.07;;;2.53;;
11004;SDS011;5555;59.622;16.556;2023-05-10T10:22:36;9.03;;;2.97;;
11004;SDS011;5555;59.622;16.556;2023-05-10T10:25:02;4.87;;;2.53;;
11004;SDS011;5555;59.622;16.556;2023-05-10T10:32:59;8.70;;;2.90;;
11004;SDS011;5555;59.622;16.556;2023-05-10T10:35:29;14.20;;;2.90;;
11004;SDS011;5555;59.622;16.556;2023-05-10T10:37:55;9.50;;;3.00;;
11004;SDS011;5555;59.622;16.556;2023-05-10T10:40:25;6.20;;;2.73;;
11004;SDS011;5555;59.622;16.556;2023-05-10T10:42:52;7.67;;;2.70;;
11004;SDS011;5555;59.622;16.556;2023-05-10T10:45:19;11.10;;;3.07;;
11004;SDS011;5555;59.622;16.556;2023-05-10T10:47:46;5.17;;;2.40;;
11004;SDS011;5555;59.622;16.556;2023-05-10T10:50:11;7.90;;;2.37;;
11004;SDS011;5555;59.622;16.556;2023-05-10T10:52:41;6.77;;;3.03;;
11004;SDS011;5555;59.622;16.556;2023-05-10T10:55:08;7.37;;;3.00;;
11004;SDS011;5555;59.622;16.556;2023-05-10T10:57:43;8.20;;;2.70;;
11004;SDS011;5555;59.622;16.556;2023-05-10T11:07:57;11.40;;;2.70;;
11004;SDS011;5555;59.622;16.556;2023-05-10T11:10:24;10.70;;;2.50;;
11004;SDS011;5555;59.622;16.556;2023-05-10T11:12:52;7.93;;;2.83;;
11004;SDS011;5555;59.622;16.556;2023-05-10T11:15:34;7.97;;;2.50;;
11004;SDS011;5555;59.622;16.556;2023-05-10T11:18:36;6.73;;;2.83;;
11004;SDS011;5555;59.622;16.556;2023-05-10T11:21:02;5.37;;;2.60;;
11004;SDS011;5555;59.622;16.556;2023-05-10T11:23:30;9.47;;;3.13;;
11004;SDS011;5555;59.622;16.556;2023-05-10T11:25:56;6.20;;;2.40;;
11004;SDS011;5555;59.622;16.556;2023-05-10T11:28:22;6.13;;;2.43;;
11004;SDS011;5555;59.622;16.556;2023-05-10T11:30:48;6.30;;;2.10;;
11004;SDS011;5555;59.622;16.556;2023-05-10T11:33:17;6.75;;;2.30;;
11004;SDS011;5555;59.622;16.556;2023-05-10T11:35:44;12.77;;;3.05;;
11004;SDS011;5555;59.622;16.556;2023-05-10T11:38:11;6.43;;;2.08;;
11004;SDS011;5555;59.622;16.556;2023-05-10T11:40:38;3.95;;;2.30;;
11004;SDS011;5555;59.622;16.556;2023-05-10T11:43:04;7.47;;;2.05;;
11004;SDS011;5555;59.622;16.556;2023-05-10T11:45:34;6.97;;;2.08;;
11004;SDS011;5555;59.622;16.556;2023-05-10T11:48:00;6.75;;;2.15;;
11004;SDS011;5555;59.622;16.556;2023-05-10T11:50:27;8.10;;;2.42;;
11004;SDS011;5555;59.622;16.556;2023-05-10T11:52:53;10.70;;;2.95;;
11004;SDS011;5555;59.622;16.556;2023-05-10T11:55:20;8.27;;;2.28;;
11004;SDS011;5555;59.622;16.556;2023-05-10T11:57:46;14.38;;;2.78;;
11004;SDS011;5555;59.622;16.556;2023-05-10T12:00:16;5.63;;;2.50;;
11004;SDS011;5555;59.622;16.556;2023-05-10T12:02:42;6.35;;;2.05;;
11004;SDS011;5555;59.622;16.556;2023-05-10T12:05:08;20.52;;;3.58;;
11004;SDS011;5555;59.622;16.556;2023-05-10T12:07:34;10.10;;;2.75;;
11004;SDS011;5555;59.622;16.556;2023-05-10T12:12:37;12.63;;;2.47;;
11004;SDS011;5555;59.622;16.556;2023-05-10T12:15:10;14.10;;;2.70;;
11004;SDS011;5555;59.622;16.556;2023-05-10T12:17:47;9.95;;;2.42;;
11004;SDS011;5555;59.622;16.556;2023-05-10T12:20:14;10.80;;;2.63;;
11004;SDS011;5555;59.622;16.556;2023-05-10T12:22:54;17.50;;;3.15;;
11004;SDS011;5555;59.622;16.556;2023-05-10T12:25:23;18.00;;;2.88;;
11004;SDS011;5555;59.622;16.556;2023-05-10T12:27:55;8.80;;;2.50;;
11004;SDS011;5555;59.622;16.556;2023-05-10T12:30:22;6.70;;;2.33;;
11004;SDS011;5555;59.622;16.556;2023-05-10T12:32:53;5.53;;;2.50;;
11004;SDS011;5555;59.622;16.556;2023-05-10T12:35:19;14.68;;;2.88;;
11004;SDS011;5555;59.622;16.556;2023-05-10T12:37:49;25.98;;;3.90;;
11004;SDS011;5555;59.622;16.556;2023-05-10T12:40:16;9.68;;;2.58;;
11004;SDS011;5555;59.622;16.556;2023-05-10T12:42:41;18.20;;;3.05;;
11004;SDS011;5555;59.622;16.556;2023-05-10T12:45:09;15.70;;;3.00;;
11004;SDS011;5555;59.622;16.556;2023-05-10T12:47:35;7.43;;;2.20;;
11004;SDS011;5555;59.622;16.556;2023-05-10T12:50:02;11.15;;;2.88;;
11004;SDS011;5555;59.622;16.556;2023-05-10T12:52:28;18.73;;;3.13;;
11004;SDS011;5555;59.622;16.556;2023-05-10T12:54:54;7.15;;;2.50;;
11004;SDS011;5555;59.622;16.556;2023-05-10T12:57:20;13.43;;;2.78;;
11004;SDS011;5555;59.622;16.556;2023-05-10T12:59:46;5.40;;;2.10;;
11004;SDS011;5555;59.622;16.556;2023-05-10T13:02:12;14.05;;;3.10;;
11004;SDS011;5555;59.622;16.556;2023-05-10T13:04:39;6.57;;;2.05;;
11004;SDS011;5555;59.622;16.556;2023-05-10T13:07:08;6.65;;;2.50;;
11004;SDS011;5555;59.622;16.556;2023-05-10T13:09:34;11.80;;;3.00;;
11004;SDS011;5555;59.622;16.556;2023-05-10T13:12:00;10.40;;;2.70;;
11004;SDS011;5555;59.622;16.556;2023-05-10T13:14:26;7.47;;;2.25;;
11004;SDS011;5555;59.622;16.556;2023-05-10T13:16:53;7.32;;;2.17;;
11004;SDS011;5555;59.622;16.556;2023-05-10T13:19:19;3.40;;;2.10;;
11004;SDS011;5555;59.622;16.556;2023-05-10T13:21:44;4.75;;;1.92;;
11004;SDS011;5555;59.622;16.556;2023-05-10T13:24:10;8.35;;;1.77;;
11004;SDS011;5555;59.622;16.556;2023-05-10T13:26:38;5.97;;;1.95;;
11004;SDS011;5555;59.622;16.556;2023-05-10T13:29:05;9.90;;;2.28;;
11004;SDS011;5555;59.622;16.556;2023-05-10T13:31:31;10.93;;;2.67;;
11004;SDS011;5555;59.622;16.556;2023-05-10T13:33:57;13.07;;;2.63;;
11004;SDS011;5555;59.622;16.556;2023-05-10T13:36:23;10.18;;;2.45;;
11004;SDS011;5555;59.622;16.556;2023-05-10T13:38:48;7.45;;;2.03;;
11004;SDS011;5555;59.622;16.556;2023-05-10T13:41:14;6.57;;;2.17;;
11004;SDS011;5555;59.622;16.556;2023-05-10T13:43:39;13.88;;;2.17;;
11004;SDS011;5555;59.622;16.556;2023-05-10T13:46:05;9.27;;;2.08;;
11004;SDS011;5555;59.622;16.556;2023-05-10T13:48:31;7.30;;;2.35;;
11004;SDS011;5555;59.622;16.556;2023-05-10T13:50:56;9.40;;;2.50;;
11004;SDS011;5555;59.622;16.556;2023-05-10T13:53:22;6.90;;;2.20;;
11004;SDS011;5555;59.622;16.556;2023-05-10T13:55:48;5.07;;;1.75;;
11004;SDS011;5555;59.622;16.556;2023-05-10T13:58:13;9.68;;;2.22;;
11004;SDS011;5555;59.622;16.556;2023-05-10T14:00:39;10.30;;;2.35;;
11004;SDS011;5555;59.622;16.556;2023-05-10T14:03:05;9.93;;;2.33;;
11004;SDS011;5555;59.622;16.556;2023-05-10T14:05:31;21.85;;;2.70;;
11004;SDS011;5555;59.622;16.556;2023-05-10T14:07:57;8.95;;;2.05;;
11004;SDS011;5555;59.622;16.556;2023-05-10T14:10:23;14.02;;;2.28;;
11004;SDS011;5555;59.622;16.556;2023-05-10T14:12:49;12.68;;;2.35;;
11004;SDS011;5555;59.622;16.556;2023-05-10T14:15:15;32.17;;;3.88;;
11004;SDS011;5555;59.622;16.556;2023-05-10T14:17:40;7.22;;;2.03;;
11004;SDS011;5555;59.622;16.556;2023-05-10T14:20:06;5.20;;;2.05;;
11004;SDS011;5555;59.622;16.556;2023-05-10T14:22:33;10.45;;;2.22;;
11004;SDS011;5555;59.622;16.556;2023-05-10T14:24:59;10.95;;;1.92;;
11004;SDS011;5555;59.622;16.556;2023-05-10T14:27:25;6.18;;;1.63;;
11004;SDS011;5555;59.622;16.556;2023-05-10T14:29:51;11.45;;;2.10;;
11004;SDS011;5555;59.622;16.556;2023-05-10T14:32:17;5.55;;;1.95;;
11004;SDS011;5555;59.622;16.556;2023-05-10T14:34:42;5.95;;;1.92;;
11004;SDS011;5555;59.622;16.556;2023-05-10T14:37:09;6.20;;;2.30;;
11004;SDS011;5555;59.622;16.556;2023-05-10T14:39:36;13.85;;;2.10;;
11004;SDS011;5555;59.622;16.556;2023-05-10T14:42:02;15.20;;;2.88;;
11004;SDS011;5555;59.622;16.556;2023-05-10T14:44:27;12.00;;;2.53;;
11004;SDS011;5555;59.622;16.556;2023-05-10T14:46:53;18.15;;;2.63;;
11004;SDS011;5555;59.622;16.556;2023-05-10T14:49:20;12.63;;;2.20;;
11004;SDS011;5555;59.622;16.556;2023-05-10T14:51:47;5.22;;;1.90;;
11004;SDS011;5555;59.622;16.556;2023-05-10T14:54:13;6.68;;;2.10;;
11004;SDS011;5555;59.622;16.556;2023-05-10T14:56:39;4.15;;;1.70;;
11004;SDS011;5555;59.622;16.556;2023-05-10T14:59:06;7.03;;;1.73;;
11004;SDS011;5555;59.622;16.556;2023-05-10T15:01:32;5.88;;;2.30;;
11004;SDS011;5555;59.622;16.556;2023-05-10T15:03:59;5.88;;;1.90;;
11004;SDS011;5555;59.622;16.556;2023-05-10T15:06:34;8.82;;;2.33;;
11004;SDS011;5555;59.622;16.556;2023-05-10T15:09:00;8.32;;;1.73;;
11004;SDS011;5555;59.622;16.556;2023-05-10T15:11:28;8.90;;;2.33;;
11004;SDS011;5555;59.622;16.556;2023-05-10T15:13:54;8.90;;;2.40;;
11004;SDS011;5555;59.622;16.556;2023-05-10T15:16:20;8.95;;;2.10;;
11004;SDS011;5555;59.622;16.556;2023-05-10T15:18:45;5.47;;;1.58;;